sensor_id;sensor_type;location;lat;lon;timestamp;P1;durP1;ratioP1;P2;durP2;ratioP2
46363;SDS011;32071;49.036;9.344;2022-09-09T00:01:16;2.97;;;1.83;;
46363;SDS011;32071;49.036;9.344;2022-09-09T00:04:40;2.30;;;2.00;;
46363;SDS011;32071;49.036;9.344;2022-09-09T00:12:20;2.27;;;2.07;;
46363;SDS011;32071;49.036;9.344;2022-09-09T00:17:38;2.30;;;2.03;;
46363;SDS011;32071;49.036;9.344;2022-09-09T00:20:13;5.70;;;1.90;;
46363;SDS011;32071;49.036;9.344;2022-09-09T00:22:46;3.43;;;2.17;;
46363;SDS011;32071;49.036;9.344;2022-09-09T00:25:24;1.87;;;1.77;;
46363;SDS011;32071;49.036;9.344;2022-09-09T00:27:56;10.07;;;1.83;;
46363;SDS011;32071;49.036;9.344;2022-09-09T00:30:26;3.10;;;2.03;;
46363;SDS011;32071;49.036;9.344;2022-09-09T00:33:00;1.83;;;1.73;;
46363;SDS011;32071;49.036;9.344;2022-09-09T00:35:32;6.20;;;1.90;;
46363;SDS011;32071;49.036;9.344;2022-09-09T00:38:03;4.50;;;2.13;;
46363;SDS011;32071;49.036;9.344;2022-09-09T00:43:30;2.60;;;1.97;;
46363;SDS011;32071;49.036;9.344;2022-09-09T00:57:33;2.03;;;1.83;;
46363;SDS011;32071;49.036;9.344;2022-09-09T01:11:08;2.27;;;1.97;;
46363;SDS011;32071;49.036;9.344;2022-09-09T01:13:40;4.23;;;2.20;;
46363;SDS011;32071;49.036;9.344;2022-09-09T01:16:08;3.53;;;2.30;;
46363;SDS011;32071;49.036;9.344;2022-09-09T01:18:46;2.40;;;2.20;;
46363;SDS011;32071;49.036;9.344;2022-09-09T01:24:04;1.40;;;1.30;;
46363;SDS011;32071;49.036;9.344;2022-09-09T01:26:41;4.70;;;2.03;;
46363;SDS011;32071;49.036;9.344;2022-09-09T01:29:09;4.60;;;1.90;;
46363;SDS011;32071;49.036;9.344;2022-09-09T01:34:24;2.10;;;1.90;;
46363;SDS011;32071;49.036;9.344;2022-09-09T01:39:32;5.40;;;2.50;;
46363;SDS011;32071;49.036;9.344;2022-09-09T01:41:59;3.50;;;1.77;;
46363;SDS011;32071;49.036;9.344;2022-09-09T01:44:26;3.13;;;1.90;;
46363;SDS011;32071;49.036;9.344;2022-09-09T01:46:53;2.80;;;1.90;;
46363;SDS011;32071;49.036;9.344;2022-09-09T01:49:18;2.40;;;1.70;;
46363;SDS011;32071;49.036;9.344;2022-09-09T01:51:45;2.60;;;1.90;;
46363;SDS011;32071;49.036;9.344;2022-09-09T01:54:14;1.70;;;1.60;;
46363;SDS011;32071;49.036;9.344;2022-09-09T01:56:58;3.87;;;1.97;;
46363;SDS011;32071;49.036;9.344;2022-09-09T02:02:35;2.90;;;1.80;;
46363;SDS011;32071;49.036;9.344;2022-09-09T02:05:38;1.67;;;1.57;;
46363;SDS011;32071;49.036;9.344;2022-09-09T02:08:20;2.13;;;1.77;;
46363;SDS011;32071;49.036;9.344;2022-09-09T02:11:12;1.80;;;1.70;;
46363;SDS011;32071;49.036;9.344;2022-09-09T02:13:36;1.93;;;1.77;;
46363;SDS011;32071;49.036;9.344;2022-09-09T02:21:27;2.70;;;1.70;;
46363;SDS011;32071;49.036;9.344;2022-09-09T02:23:54;2.80;;;2.10;;
46363;SDS011;32071;49.036;9.344;2022-09-09T02:26:23;2.73;;;1.90;;
46363;SDS011;32071;49.036;9.344;2022-09-09T02:28:50;3.70;;;2.10;;
46363;SDS011;32071;49.036;9.344;2022-09-09T02:31:20;2.30;;;1.80;;
46363;SDS011;32071;49.036;9.344;2022-09-09T02:33:54;1.87;;;1.70;;
46363;SDS011;32071;49.036;9.344;2022-09-09T02:36:23;1.90;;;1.60;;
46363;SDS011;32071;49.036;9.344;2022-09-09T02:38:50;3.23;;;1.97;;
46363;SDS011;32071;49.036;9.344;2022-09-09T02:41:26;1.97;;;1.77;;
46363;SDS011;32071;49.036;9.344;2022-09-09T02:43:57;4.10;;;1.90;;
46363;SDS011;32071;49.036;9.344;2022-09-09T02:52:07;2.77;;;2.10;;
46363;SDS011;32071;49.036;9.344;2022-09-09T02:54:40;7.30;;;2.00;;
46363;SDS011;32071;49.036;9.344;2022-09-09T02:57:16;2.60;;;1.90;;
46363;SDS011;32071;49.036;9.344;2022-09-09T02:59:46;2.67;;;1.80;;
46363;SDS011;32071;49.036;9.344;2022-09-09T03:02:12;4.93;;;1.97;;
46363;SDS011;32071;49.036;9.344;2022-09-09T03:04:38;5.60;;;2.27;;
46363;SDS011;32071;49.036;9.344;2022-09-09T03:07:05;3.67;;;2.00;;
46363;SDS011;32071;49.036;9.344;2022-09-09T03:09:30;3.17;;;2.23;;
46363;SDS011;32071;49.036;9.344;2022-09-09T03:11:57;5.70;;;2.47;;
46363;SDS011;32071;49.036;9.344;2022-09-09T03:14:24;3.13;;;2.00;;
46363;SDS011;32071;49.036;9.344;2022-09-09T03:16:53;4.73;;;2.17;;
46363;SDS011;32071;49.036;9.344;2022-09-09T03:19:19;3.27;;;1.93;;
46363;SDS011;32071;49.036;9.344;2022-09-09T03:21:45;3.37;;;2.30;;
46363;SDS011;32071;49.036;9.344;2022-09-09T03:24:12;6.83;;;2.20;;
46363;SDS011;32071;49.036;9.344;2022-09-09T03:26:39;2.40;;;2.20;;
46363;SDS011;32071;49.036;9.344;2022-09-09T03:29:05;2.50;;;1.90;;
46363;SDS011;32071;49.036;9.344;2022-09-09T03:31:32;5.37;;;2.60;;
46363;SDS011;32071;49.036;9.344;2022-09-09T03:33:59;2.10;;;1.90;;
46363;SDS011;32071;49.036;9.344;2022-09-09T03:36:25;1.90;;;1.80;;
46363;SDS011;32071;49.036;9.344;2022-09-09T03:38:52;3.20;;;1.90;;
46363;SDS011;32071;49.036;9.344;2022-09-09T03:41:19;4.30;;;2.47;;
46363;SDS011;32071;49.036;9.344;2022-09-09T03:43:45;4.93;;;1.80;;
46363;SDS011;32071;49.036;9.344;2022-09-09T03:46:11;3.10;;;2.00;;
46363;SDS011;32071;49.036;9.344;2022-09-09T03:48:37;2.20;;;2.00;;
46363;SDS011;32071;49.036;9.344;2022-09-09T03:51:03;2.00;;;1.80;;
46363;SDS011;32071;49.036;9.344;2022-09-09T03:53:29;2.00;;;1.90;;
46363;SDS011;32071;49.036;9.344;2022-09-09T03:55:55;2.07;;;1.97;;
46363;SDS011;32071;49.036;9.344;2022-09-09T03:58:25;5.73;;;2.40;;
46363;SDS011;32071;49.036;9.344;2022-09-09T04:03:24;2.73;;;2.50;;
46363;SDS011;32071;49.036;9.344;2022-09-09T04:05:51;2.73;;;2.30;;
46363;SDS011;32071;49.036;9.344;2022-09-09T04:08:17;3.37;;;2.37;;
46363;SDS011;32071;49.036;9.344;2022-09-09T04:10:47;2.60;;;2.37;;
46363;SDS011;32071;49.036;9.344;2022-09-09T04:13:13;2.20;;;1.90;;
46363;SDS011;32071;49.036;9.344;2022-09-09T04:15:41;3.33;;;1.90;;
46363;SDS011;32071;49.036;9.344;2022-09-09T04:18:08;2.20;;;1.90;;
46363;SDS011;32071;49.036;9.344;2022-09-09T04:20:34;4.77;;;2.03;;
46363;SDS011;32071;49.036;9.344;2022-09-09T04:23:00;2.20;;;2.00;;
46363;SDS011;32071;49.036;9.344;2022-09-09T04:25:26;2.10;;;1.93;;
46363;SDS011;32071;49.036;9.344;2022-09-09T04:27:55;2.40;;;1.90;;
46363;SDS011;32071;49.036;9.344;2022-09-09T04:30:21;2.20;;;1.90;;
46363;SDS011;32071;49.036;9.344;2022-09-09T04:32:48;5.60;;;1.87;;
46363;SDS011;32071;49.036;9.344;2022-09-09T04:35:13;3.47;;;2.00;;
46363;SDS011;32071;49.036;9.344;2022-09-09T04:37:39;2.83;;;1.80;;
46363;SDS011;32071;49.036;9.344;2022-09-09T04:40:05;3.00;;;2.20;;
46363;SDS011;32071;49.036;9.344;2022-09-09T04:42:35;4.13;;;2.13;;
46363;SDS011;32071;49.036;9.344;2022-09-09T04:45:01;2.87;;;1.87;;
46363;SDS011;32071;49.036;9.344;2022-09-09T04:47:26;2.90;;;2.00;;
46363;SDS011;32071;49.036;9.344;2022-09-09T04:49:52;3.73;;;2.77;;
46363;SDS011;32071;49.036;9.344;2022-09-09T04:52:19;2.77;;;1.97;;
46363;SDS011;32071;49.036;9.344;2022-09-09T04:54:45;2.40;;;2.20;;
46363;SDS011;32071;49.036;9.344;2022-09-09T04:57:11;2.77;;;2.00;;
46363;SDS011;32071;49.036;9.344;2022-09-09T04:59:37;2.67;;;1.50;;
46363;SDS011;32071;49.036;9.344;2022-09-09T05:02:04;3.13;;;1.70;;
46363;SDS011;32071;49.036;9.344;2022-09-09T05:04:29;3.33;;;2.20;;
46363;SDS011;32071;49.036;9.344;2022-09-09T05:06:55;6.03;;;2.17;;
46363;SDS011;32071;49.036;9.344;2022-09-09T05:09:21;2.90;;;2.30;;
46363;SDS011;32071;49.036;9.344;2022-09-09T05:11:46;2.33;;;2.00;;
46363;SDS011;32071;49.036;9.344;2022-09-09T05:14:12;1.73;;;1.63;;
46363;SDS011;32071;49.036;9.344;2022-09-09T05:16:39;3.30;;;1.90;;
46363;SDS011;32071;49.036;9.344;2022-09-09T05:19:05;5.10;;;2.07;;
46363;SDS011;32071;49.036;9.344;2022-09-09T05:21:32;3.30;;;2.00;;
46363;SDS011;32071;49.036;9.344;2022-09-09T05:23:58;2.30;;;2.10;;
46363;SDS011;32071;49.036;9.344;2022-09-09T05:26:25;2.60;;;1.90;;
46363;SDS011;32071;49.036;9.344;2022-09-09T05:28:51;3.43;;;2.20;;
46363;SDS011;32071;49.036;9.344;2022-09-09T05:31:17;2.90;;;1.53;;
46363;SDS011;32071;49.036;9.344;2022-09-09T05:33:44;2.33;;;2.13;;
46363;SDS011;32071;49.036;9.344;2022-09-09T05:36:12;2.73;;;2.23;;
46363;SDS011;32071;49.036;9.344;2022-09-09T05:38:42;1.83;;;1.67;;
46363;SDS011;32071;49.036;9.344;2022-09-09T05:41:08;3.83;;;2.40;;
46363;SDS011;32071;49.036;9.344;2022-09-09T05:43:40;2.40;;;2.17;;
46363;SDS011;32071;49.036;9.344;2022-09-09T05:46:09;3.90;;;2.20;;
46363;SDS011;32071;49.036;9.344;2022-09-09T05:48:40;2.33;;;1.67;;
46363;SDS011;32071;49.036;9.344;2022-09-09T05:51:11;5.30;;;1.67;;
46363;SDS011;32071;49.036;9.344;2022-09-09T05:53:40;2.23;;;1.93;;
46363;SDS011;32071;49.036;9.344;2022-09-09T05:56:08;4.50;;;2.17;;
46363;SDS011;32071;49.036;9.344;2022-09-09T05:58:39;2.70;;;1.90;;
46363;SDS011;32071;49.036;9.344;2022-09-09T06:01:09;2.20;;;2.00;;
46363;SDS011;32071;49.036;9.344;2022-09-09T06:03:37;1.73;;;1.63;;
46363;SDS011;32071;49.036;9.344;2022-09-09T06:06:06;1.77;;;1.60;;
46363;SDS011;32071;49.036;9.344;2022-09-09T06:08:34;1.87;;;1.77;;
46363;SDS011;32071;49.036;9.344;2022-09-09T06:13:32;2.77;;;1.90;;
46363;SDS011;32071;49.036;9.344;2022-09-09T06:15:58;2.30;;;1.60;;
46363;SDS011;32071;49.036;9.344;2022-09-09T06:18:25;2.10;;;1.73;;
46363;SDS011;32071;49.036;9.344;2022-09-09T06:20:57;2.23;;;2.03;;
46363;SDS011;32071;49.036;9.344;2022-09-09T06:23:25;2.60;;;2.00;;
46363;SDS011;32071;49.036;9.344;2022-09-09T06:25:59;3.40;;;1.93;;
46363;SDS011;32071;49.036;9.344;2022-09-09T06:28:34;2.87;;;1.53;;
46363;SDS011;32071;49.036;9.344;2022-09-09T06:31:02;1.73;;;1.63;;
46363;SDS011;32071;49.036;9.344;2022-09-09T06:33:33;4.60;;;2.20;;
46363;SDS011;32071;49.036;9.344;2022-09-09T06:36:01;4.57;;;2.00;;
46363;SDS011;32071;49.036;9.344;2022-09-09T06:38:28;2.67;;;1.80;;
46363;SDS011;32071;49.036;9.344;2022-09-09T06:40:55;1.83;;;1.73;;
46363;SDS011;32071;49.036;9.344;2022-09-09T06:43:23;3.03;;;1.90;;
46363;SDS011;32071;49.036;9.344;2022-09-09T06:45:55;3.00;;;2.30;;
46363;SDS011;32071;49.036;9.344;2022-09-09T06:48:25;4.40;;;1.70;;
46363;SDS011;32071;49.036;9.344;2022-09-09T06:51:14;1.90;;;1.70;;
46363;SDS011;32071;49.036;9.344;2022-09-09T06:53:49;2.40;;;1.97;;
46363;SDS011;32071;49.036;9.344;2022-09-09T06:58:41;2.83;;;1.60;;
46363;SDS011;32071;49.036;9.344;2022-09-09T07:01:09;4.60;;;1.60;;
46363;SDS011;32071;49.036;9.344;2022-09-09T07:03:35;2.93;;;1.70;;
46363;SDS011;32071;49.036;9.344;2022-09-09T07:06:02;4.00;;;1.60;;
46363;SDS011;32071;49.036;9.344;2022-09-09T07:08:29;2.30;;;1.47;;
46363;SDS011;32071;49.036;9.344;2022-09-09T07:11:01;9.60;;;1.93;;
46363;SDS011;32071;49.036;9.344;2022-09-09T07:13:31;3.63;;;1.80;;
46363;SDS011;32071;49.036;9.344;2022-09-09T07:16:05;3.50;;;2.03;;
46363;SDS011;32071;49.036;9.344;2022-09-09T07:18:32;2.70;;;1.80;;
46363;SDS011;32071;49.036;9.344;2022-09-09T07:20:59;2.27;;;1.70;;
46363;SDS011;32071;49.036;9.344;2022-09-09T07:23:25;1.97;;;1.70;;
46363;SDS011;32071;49.036;9.344;2022-09-09T07:25:51;3.50;;;1.60;;
46363;SDS011;32071;49.036;9.344;2022-09-09T07:28:17;3.57;;;1.70;;
46363;SDS011;32071;49.036;9.344;2022-09-09T07:30:52;2.70;;;2.13;;
46363;SDS011;32071;49.036;9.344;2022-09-09T07:33:22;2.23;;;2.03;;
46363;SDS011;32071;49.036;9.344;2022-09-09T07:35:48;3.27;;;1.73;;
46363;SDS011;32071;49.036;9.344;2022-09-09T07:38:14;2.90;;;1.87;;
46363;SDS011;32071;49.036;9.344;2022-09-09T07:40:40;3.07;;;2.00;;
46363;SDS011;32071;49.036;9.344;2022-09-09T07:43:06;2.87;;;1.93;;
46363;SDS011;32071;49.036;9.344;2022-09-09T07:45:33;3.70;;;1.83;;
46363;SDS011;32071;49.036;9.344;2022-09-09T07:47:59;3.10;;;1.63;;
46363;SDS011;32071;49.036;9.344;2022-09-09T07:50:25;2.10;;;1.57;;
46363;SDS011;32071;49.036;9.344;2022-09-09T07:52:51;6.97;;;1.90;;
46363;SDS011;32071;49.036;9.344;2022-09-09T07:55:18;2.50;;;1.77;;
46363;SDS011;32071;49.036;9.344;2022-09-09T07:57:44;3.60;;;2.00;;
46363;SDS011;32071;49.036;9.344;2022-09-09T08:00:12;1.67;;;1.57;;
46363;SDS011;32071;49.036;9.344;2022-09-09T08:02:39;2.70;;;2.20;;
46363;SDS011;32071;49.036;9.344;2022-09-09T08:05:05;2.47;;;1.90;;
46363;SDS011;32071;49.036;9.344;2022-09-09T08:07:31;2.67;;;1.80;;
46363;SDS011;32071;49.036;9.344;2022-09-09T08:09:57;2.40;;;1.63;;
46363;SDS011;32071;49.036;9.344;2022-09-09T08:12:23;3.30;;;2.03;;
46363;SDS011;32071;49.036;9.344;2022-09-09T08:14:48;2.73;;;1.60;;
46363;SDS011;32071;49.036;9.344;2022-09-09T08:17:14;3.00;;;2.00;;
46363;SDS011;32071;49.036;9.344;2022-09-09T08:19:41;3.90;;;1.80;;
46363;SDS011;32071;49.036;9.344;2022-09-09T08:22:06;4.43;;;1.60;;
46363;SDS011;32071;49.036;9.344;2022-09-09T08:24:33;3.70;;;1.97;;
46363;SDS011;32071;49.036;9.344;2022-09-09T08:26:58;2.10;;;1.90;;
46363;SDS011;32071;49.036;9.344;2022-09-09T08:29:25;2.70;;;1.77;;
46363;SDS011;32071;49.036;9.344;2022-09-09T08:31:54;2.40;;;1.63;;
46363;SDS011;32071;49.036;9.344;2022-09-09T08:34:24;3.03;;;1.70;;
46363;SDS011;32071;49.036;9.344;2022-09-09T08:36:52;3.73;;;1.90;;
46363;SDS011;32071;49.036;9.344;2022-09-09T08:39:19;4.27;;;1.60;;
46363;SDS011;32071;49.036;9.344;2022-09-09T08:41:52;3.93;;;1.37;;
46363;SDS011;32071;49.036;9.344;2022-09-09T08:52:31;5.63;;;1.70;;
46363;SDS011;32071;49.036;9.344;2022-09-09T08:55:11;2.87;;;1.43;;
46363;SDS011;32071;49.036;9.344;2022-09-09T08:57:54;4.83;;;1.93;;
46363;SDS011;32071;49.036;9.344;2022-09-09T09:00:23;5.60;;;1.80;;
46363;SDS011;32071;49.036;9.344;2022-09-09T09:03:09;4.50;;;1.83;;
46363;SDS011;32071;49.036;9.344;2022-09-09T09:05:52;4.13;;;1.50;;
46363;SDS011;32071;49.036;9.344;2022-09-09T09:11:46;3.10;;;1.70;;
46363;SDS011;32071;49.036;9.344;2022-09-09T09:19:29;4.87;;;1.60;;
46363;SDS011;32071;49.036;9.344;2022-09-09T09:22:14;1.50;;;1.23;;
46363;SDS011;32071;49.036;9.344;2022-09-09T09:30:06;2.60;;;1.70;;
46363;SDS011;32071;49.036;9.344;2022-09-09T09:32:38;3.77;;;1.67;;
46363;SDS011;32071;49.036;9.344;2022-09-09T09:35:09;2.83;;;1.50;;
46363;SDS011;32071;49.036;9.344;2022-09-09T09:37:37;4.63;;;1.70;;
46363;SDS011;32071;49.036;9.344;2022-09-09T09:40:15;1.50;;;1.30;;
46363;SDS011;32071;49.036;9.344;2022-09-09T09:42:48;2.97;;;1.57;;
46363;SDS011;32071;49.036;9.344;2022-09-09T09:45:23;3.23;;;1.40;;
46363;SDS011;32071;49.036;9.344;2022-09-09T09:48:02;2.97;;;2.67;;
46363;SDS011;32071;49.036;9.344;2022-09-09T09:50:29;4.20;;;1.50;;
46363;SDS011;32071;49.036;9.344;2022-09-09T09:52:57;2.17;;;1.40;;
46363;SDS011;32071;49.036;9.344;2022-09-09T09:55:29;2.47;;;1.80;;
46363;SDS011;32071;49.036;9.344;2022-09-09T09:58:06;4.90;;;1.80;;
46363;SDS011;32071;49.036;9.344;2022-09-09T10:00:47;1.97;;;1.80;;
46363;SDS011;32071;49.036;9.344;2022-09-09T10:03:21;3.63;;;1.70;;
46363;SDS011;32071;49.036;9.344;2022-09-09T10:05:52;3.57;;;1.33;;
46363;SDS011;32071;49.036;9.344;2022-09-09T10:08:18;5.97;;;1.63;;
46363;SDS011;32071;49.036;9.344;2022-09-09T10:13:44;2.00;;;1.67;;
46363;SDS011;32071;49.036;9.344;2022-09-09T10:19:12;2.27;;;1.17;;
46363;SDS011;32071;49.036;9.344;2022-09-09T10:34:45;2.50;;;1.10;;
46363;SDS011;32071;49.036;9.344;2022-09-09T10:37:34;1.70;;;1.20;;
46363;SDS011;32071;49.036;9.344;2022-09-09T10:42:39;2.83;;;1.43;;
46363;SDS011;32071;49.036;9.344;2022-09-09T10:51:22;1.37;;;1.27;;
46363;SDS011;32071;49.036;9.344;2022-09-09T10:56:36;1.47;;;1.13;;
46363;SDS011;32071;49.036;9.344;2022-09-09T10:59:06;2.53;;;1.40;;
46363;SDS011;32071;49.036;9.344;2022-09-09T11:01:41;2.77;;;1.13;;
46363;SDS011;32071;49.036;9.344;2022-09-09T11:04:19;1.17;;;0.93;;
46363;SDS011;32071;49.036;9.344;2022-09-09T11:06:48;3.67;;;1.07;;
46363;SDS011;32071;49.036;9.344;2022-09-09T11:09:19;2.43;;;1.20;;
46363;SDS011;32071;49.036;9.344;2022-09-09T11:11:55;1.60;;;1.20;;
46363;SDS011;32071;49.036;9.344;2022-09-09T11:14:36;3.27;;;1.40;;
46363;SDS011;32071;49.036;9.344;2022-09-09T11:17:12;3.03;;;1.63;;
46363;SDS011;32071;49.036;9.344;2022-09-09T11:19:42;1.80;;;1.10;;
46363;SDS011;32071;49.036;9.344;2022-09-09T11:38:29;3.23;;;1.53;;
46363;SDS011;32071;49.036;9.344;2022-09-09T11:41:18;2.33;;;1.10;;
46363;SDS011;32071;49.036;9.344;2022-09-09T11:43:51;7.13;;;1.37;;
46363;SDS011;32071;49.036;9.344;2022-09-09T11:46:19;4.13;;;1.60;;
46363;SDS011;32071;49.036;9.344;2022-09-09T11:49:00;1.97;;;1.13;;
46363;SDS011;32071;49.036;9.344;2022-09-09T11:51:27;1.30;;;1.20;;
46363;SDS011;32071;49.036;9.344;2022-09-09T11:56:50;1.23;;;1.07;;
46363;SDS011;32071;49.036;9.344;2022-09-09T11:59:26;5.00;;;1.50;;
46363;SDS011;32071;49.036;9.344;2022-09-09T12:02:00;2.83;;;1.00;;
46363;SDS011;32071;49.036;9.344;2022-09-09T12:04:37;1.20;;;1.10;;
46363;SDS011;32071;49.036;9.344;2022-09-09T12:09:50;2.00;;;1.10;;
46363;SDS011;32071;49.036;9.344;2022-09-09T12:12:31;2.40;;;1.10;;
46363;SDS011;32071;49.036;9.344;2022-09-09T12:17:42;3.90;;;0.90;;
46363;SDS011;32071;49.036;9.344;2022-09-09T12:20:13;0.90;;;0.90;;
46363;SDS011;32071;49.036;9.344;2022-09-09T12:28:19;0.80;;;0.80;;
46363;SDS011;32071;49.036;9.344;2022-09-09T12:31:01;3.37;;;0.80;;
46363;SDS011;32071;49.036;9.344;2022-09-09T12:33:48;8.63;;;1.17;;
46363;SDS011;32071;49.036;9.344;2022-09-09T12:36:18;3.87;;;1.03;;
46363;SDS011;32071;49.036;9.344;2022-09-09T12:38:45;1.30;;;1.20;;
46363;SDS011;32071;49.036;9.344;2022-09-09T12:41:18;1.37;;;0.93;;
46363;SDS011;32071;49.036;9.344;2022-09-09T12:43:49;0.80;;;0.80;;
46363;SDS011;32071;49.036;9.344;2022-09-09T12:46:38;0.83;;;0.83;;
46363;SDS011;32071;49.036;9.344;2022-09-09T12:49:05;1.03;;;0.93;;
46363;SDS011;32071;49.036;9.344;2022-09-09T12:51:51;0.97;;;0.87;;
46363;SDS011;32071;49.036;9.344;2022-09-09T12:54:17;2.50;;;1.00;;
46363;SDS011;32071;49.036;9.344;2022-09-09T12:56:45;3.43;;;0.70;;
46363;SDS011;32071;49.036;9.344;2022-09-09T12:59:25;0.70;;;0.70;;
46363;SDS011;32071;49.036;9.344;2022-09-09T13:02:00;1.80;;;0.67;;
46363;SDS011;32071;49.036;9.344;2022-09-09T13:04:25;0.60;;;0.60;;
46363;SDS011;32071;49.036;9.344;2022-09-09T13:06:51;0.77;;;0.70;;
46363;SDS011;32071;49.036;9.344;2022-09-09T13:09:20;1.43;;;0.90;;
46363;SDS011;32071;49.036;9.344;2022-09-09T13:11:50;1.23;;;0.60;;
46363;SDS011;32071;49.036;9.344;2022-09-09T13:14:31;0.70;;;0.70;;
46363;SDS011;32071;49.036;9.344;2022-09-09T13:17:02;1.37;;;0.90;;
46363;SDS011;32071;49.036;9.344;2022-09-09T13:19:31;0.83;;;0.63;;
46363;SDS011;32071;49.036;9.344;2022-09-09T13:22:10;0.90;;;0.60;;
46363;SDS011;32071;49.036;9.344;2022-09-09T13:24:38;1.53;;;0.77;;
46363;SDS011;32071;49.036;9.344;2022-09-09T13:27:25;3.67;;;1.37;;
46363;SDS011;32071;49.036;9.344;2022-09-09T13:29:53;6.93;;;1.03;;
46363;SDS011;32071;49.036;9.344;2022-09-09T13:32:22;1.13;;;1.03;;
46363;SDS011;32071;49.036;9.344;2022-09-09T13:34:50;0.80;;;0.80;;
46363;SDS011;32071;49.036;9.344;2022-09-09T13:37:24;2.60;;;0.73;;
46363;SDS011;32071;49.036;9.344;2022-09-09T13:40:00;1.30;;;0.70;;
46363;SDS011;32071;49.036;9.344;2022-09-09T13:42:28;2.50;;;1.20;;
46363;SDS011;32071;49.036;9.344;2022-09-09T13:44:56;0.67;;;0.67;;
46363;SDS011;32071;49.036;9.344;2022-09-09T13:47:27;1.00;;;0.90;;
46363;SDS011;32071;49.036;9.344;2022-09-09T13:49:58;1.23;;;1.00;;
46363;SDS011;32071;49.036;9.344;2022-09-09T13:52:34;1.60;;;0.83;;
46363;SDS011;32071;49.036;9.344;2022-09-09T13:55:00;1.27;;;0.77;;
46363;SDS011;32071;49.036;9.344;2022-09-09T13:57:26;3.50;;;0.90;;
46363;SDS011;32071;49.036;9.344;2022-09-09T13:59:52;1.70;;;0.80;;
46363;SDS011;32071;49.036;9.344;2022-09-09T14:02:19;1.87;;;1.00;;
46363;SDS011;32071;49.036;9.344;2022-09-09T14:04:48;1.97;;;0.90;;
46363;SDS011;32071;49.036;9.344;2022-09-09T14:07:16;1.33;;;1.00;;
46363;SDS011;32071;49.036;9.344;2022-09-09T14:09:42;1.00;;;1.00;;
46363;SDS011;32071;49.036;9.344;2022-09-09T14:12:10;1.07;;;0.83;;
46363;SDS011;32071;49.036;9.344;2022-09-09T14:14:36;1.90;;;0.87;;
46363;SDS011;32071;49.036;9.344;2022-09-09T14:17:02;2.20;;;0.90;;
46363;SDS011;32071;49.036;9.344;2022-09-09T14:19:28;2.03;;;0.90;;
46363;SDS011;32071;49.036;9.344;2022-09-09T14:21:55;2.70;;;1.00;;
46363;SDS011;32071;49.036;9.344;2022-09-09T14:24:21;1.13;;;0.90;;
46363;SDS011;32071;49.036;9.344;2022-09-09T14:26:47;0.73;;;0.67;;
46363;SDS011;32071;49.036;9.344;2022-09-09T14:29:13;1.53;;;0.80;;
46363;SDS011;32071;49.036;9.344;2022-09-09T14:31:38;6.23;;;1.00;;
46363;SDS011;32071;49.036;9.344;2022-09-09T14:34:04;3.40;;;1.10;;
46363;SDS011;32071;49.036;9.344;2022-09-09T14:36:31;1.30;;;1.00;;
46363;SDS011;32071;49.036;9.344;2022-09-09T14:38:56;2.10;;;1.20;;
46363;SDS011;32071;49.036;9.344;2022-09-09T14:41:22;3.30;;;1.40;;
46363;SDS011;32071;49.036;9.344;2022-09-09T14:43:48;1.57;;;1.40;;
46363;SDS011;32071;49.036;9.344;2022-09-09T14:46:15;1.43;;;1.07;;
46363;SDS011;32071;49.036;9.344;2022-09-09T14:48:42;2.20;;;1.00;;
46363;SDS011;32071;49.036;9.344;2022-09-09T14:51:10;3.00;;;1.37;;
46363;SDS011;32071;49.036;9.344;2022-09-09T14:53:38;3.30;;;1.20;;
46363;SDS011;32071;49.036;9.344;2022-09-09T14:56:06;3.60;;;1.00;;
46363;SDS011;32071;49.036;9.344;2022-09-09T14:58:36;1.03;;;0.90;;
46363;SDS011;32071;49.036;9.344;2022-09-09T15:01:06;3.57;;;1.67;;
46363;SDS011;32071;49.036;9.344;2022-09-09T15:03:47;2.20;;;1.10;;
46363;SDS011;32071;49.036;9.344;2022-09-09T15:06:15;2.17;;;1.20;;
46363;SDS011;32071;49.036;9.344;2022-09-09T15:08:41;3.10;;;1.40;;
46363;SDS011;32071;49.036;9.344;2022-09-09T15:11:08;1.73;;;1.57;;
46363;SDS011;32071;49.036;9.344;2022-09-09T15:13:36;0.80;;;0.80;;
46363;SDS011;32071;49.036;9.344;2022-09-09T15:16:05;0.97;;;0.80;;
46363;SDS011;32071;49.036;9.344;2022-09-09T15:18:32;1.00;;;1.00;;
46363;SDS011;32071;49.036;9.344;2022-09-09T15:20:58;2.07;;;1.50;;
46363;SDS011;32071;49.036;9.344;2022-09-09T15:23:26;1.23;;;1.00;;
46363;SDS011;32071;49.036;9.344;2022-09-09T15:25:52;1.20;;;1.00;;
46363;SDS011;32071;49.036;9.344;2022-09-09T15:28:18;2.10;;;1.20;;
46363;SDS011;32071;49.036;9.344;2022-09-09T15:30:47;1.70;;;0.87;;
46363;SDS011;32071;49.036;9.344;2022-09-09T15:33:13;1.57;;;0.97;;
46363;SDS011;32071;49.036;9.344;2022-09-09T15:35:39;1.90;;;0.97;;
46363;SDS011;32071;49.036;9.344;2022-09-09T15:38:04;1.30;;;1.00;;
46363;SDS011;32071;49.036;9.344;2022-09-09T15:40:30;2.87;;;1.00;;
46363;SDS011;32071;49.036;9.344;2022-09-09T15:42:57;1.33;;;1.00;;
46363;SDS011;32071;49.036;9.344;2022-09-09T15:45:23;1.17;;;1.10;;
46363;SDS011;32071;49.036;9.344;2022-09-09T15:47:49;2.37;;;0.87;;
46363;SDS011;32071;49.036;9.344;2022-09-09T15:50:14;1.10;;;1.10;;
46363;SDS011;32071;49.036;9.344;2022-09-09T15:52:40;2.53;;;1.10;;
46363;SDS011;32071;49.036;9.344;2022-09-09T15:55:06;2.17;;;0.87;;
46363;SDS011;32071;49.036;9.344;2022-09-09T15:57:33;0.87;;;0.80;;
46363;SDS011;32071;49.036;9.344;2022-09-09T15:59:59;1.37;;;0.80;;
46363;SDS011;32071;49.036;9.344;2022-09-09T16:02:26;1.23;;;1.13;;
46363;SDS011;32071;49.036;9.344;2022-09-09T16:04:51;2.33;;;0.97;;
46363;SDS011;32071;49.036;9.344;2022-09-09T16:07:17;1.87;;;1.10;;
46363;SDS011;32071;49.036;9.344;2022-09-09T16:09:43;2.83;;;1.20;;
46363;SDS011;32071;49.036;9.344;2022-09-09T16:12:08;3.87;;;0.90;;
46363;SDS011;32071;49.036;9.344;2022-09-09T16:14:36;0.67;;;0.67;;
46363;SDS011;32071;49.036;9.344;2022-09-09T16:17:04;15.33;;;1.70;;
46363;SDS011;32071;49.036;9.344;2022-09-09T16:19:30;1.63;;;1.20;;
46363;SDS011;32071;49.036;9.344;2022-09-09T16:21:56;2.40;;;1.80;;
46363;SDS011;32071;49.036;9.344;2022-09-09T16:24:23;4.33;;;1.87;;
46363;SDS011;32071;49.036;9.344;2022-09-09T16:26:52;2.90;;;1.70;;
46363;SDS011;32071;49.036;9.344;2022-09-09T16:29:19;2.60;;;1.30;;
46363;SDS011;32071;49.036;9.344;2022-09-09T16:31:46;3.20;;;0.90;;
46363;SDS011;32071;49.036;9.344;2022-09-09T16:34:12;1.33;;;0.80;;
46363;SDS011;32071;49.036;9.344;2022-09-09T16:36:40;1.10;;;1.00;;
46363;SDS011;32071;49.036;9.344;2022-09-09T16:39:08;8.23;;;1.17;;
46363;SDS011;32071;49.036;9.344;2022-09-09T16:41:36;1.47;;;1.30;;
46363;SDS011;32071;49.036;9.344;2022-09-09T16:44:04;4.83;;;1.53;;
46363;SDS011;32071;49.036;9.344;2022-09-09T16:46:34;3.30;;;1.50;;
46363;SDS011;32071;49.036;9.344;2022-09-09T16:49:04;3.20;;;1.40;;
46363;SDS011;32071;49.036;9.344;2022-09-09T16:51:32;1.73;;;1.10;;
46363;SDS011;32071;49.036;9.344;2022-09-09T16:54:06;2.23;;;1.10;;
46363;SDS011;32071;49.036;9.344;2022-09-09T16:56:33;2.10;;;1.00;;
46363;SDS011;32071;49.036;9.344;2022-09-09T16:59:02;2.20;;;0.93;;
46363;SDS011;32071;49.036;9.344;2022-09-09T17:01:34;2.20;;;1.07;;
46363;SDS011;32071;49.036;9.344;2022-09-09T17:04:06;5.50;;;1.23;;
46363;SDS011;32071;49.036;9.344;2022-09-09T17:06:33;1.20;;;0.87;;
46363;SDS011;32071;49.036;9.344;2022-09-09T17:09:02;1.63;;;0.97;;
46363;SDS011;32071;49.036;9.344;2022-09-09T17:11:30;2.00;;;1.20;;
46363;SDS011;32071;49.036;9.344;2022-09-09T17:13:56;0.73;;;0.73;;
46363;SDS011;32071;49.036;9.344;2022-09-09T17:16:23;4.70;;;0.87;;
46363;SDS011;32071;49.036;9.344;2022-09-09T17:18:53;1.87;;;1.03;;
46363;SDS011;32071;49.036;9.344;2022-09-09T17:21:21;2.97;;;0.80;;
46363;SDS011;32071;49.036;9.344;2022-09-09T17:23:48;8.90;;;2.13;;
46363;SDS011;32071;49.036;9.344;2022-09-09T17:26:15;3.60;;;1.20;;
46363;SDS011;32071;49.036;9.344;2022-09-09T17:28:43;2.30;;;0.70;;